Huvudsida
METAR-TAF:

METAR-TAF

Flygplatser :

Utti Airport

Uttis, Finland

latitud: 60-54N, longitud: 026-56E, höjd: 100 m

Aktuellt väderrapport

Denna rapport gjordes för 21 minuter sedan, klockan 23:50 UTC
Vind 12 kt från ost/sydost
Temperatur 5°C
Fuktighet 100%
Tryck 1023 hPa
Sikt: 4700 m
Mulet på en höjd av 300 ft
lätt duggregn

METAR: EFUT 182350Z AUTO 12012KT 4700 -DZ OVC003 05/05 Q1023

Tid: 02:11 (00:11 UTC)

Väderprognos

Denna rapport gjordes för 6 timmar och 35 minuter sedan, klockan 17:36 UTC
Prognos gäller från 18 kl. 18 UTC till 18 kl. 21 UTC
Vind 10 kt från ost/sydost
Sikt 10 km eller mer
Mulet på en höjd av 500 ft
Temporärt
från 18 kl. 18 UTC till 18 kl. 21 UTC
Sikt: 3000 m
Mulet på en höjd av 300 ft
fuktdis

TAF: EFUT 181736Z 1818/1821 11010KT 9999 OVC005 TEMPO 1818/1821 3000 BR OVC003

Aktuella väderrapporter och prognoser från 4000 flygplatser (METAR- och TAF-rapporter).

De tillgängliga stationerna syns som gula och röda prickar på kartan.

För musen över prickarna för att se namnen på stationerna.

Klicka sedan för att få väderrapporter och prognoser.

För att ändra kartan: Klicka på de gröna knapparna med ett svart kors på för att zooma in; den gröna knappen med ett streck på för att zooma ut; eller på de gröna pilarna för angränsande kartor.


METAR-TAF: